createdAt,value
2022-08-20T00:02:23.749Z,19.34
2022-08-20T00:04:50.710Z,19.84
2022-08-20T00:07:17.824Z,19.84
2022-08-20T00:09:45.081Z,19.78
2022-08-20T00:12:15.779Z,19.16
2022-08-20T00:14:42.406Z,19.69
2022-08-20T00:17:09.314Z,19.17
2022-08-20T00:19:35.903Z,19.56
2022-08-20T00:22:02.655Z,17.82
2022-08-20T00:24:29.614Z,19.38
2022-08-20T00:26:56.320Z,18.46
2022-08-20T00:29:22.944Z,19.44
2022-08-20T00:31:50.636Z,19.43
2022-08-20T00:34:17.416Z,19.45
2022-08-20T00:36:44.238Z,18.94
2022-08-20T00:39:11.181Z,19.54
2022-08-20T00:41:37.830Z,19.13
2022-08-20T00:44:18.662Z,19.54
2022-08-20T00:46:46.021Z,19.59
2022-08-20T00:49:18.949Z,19.42
2022-08-20T00:51:54.682Z,19.48
2022-08-20T00:54:36.483Z,19.50
2022-08-20T00:57:11.477Z,19.46
2022-08-20T00:59:41.842Z,19.39
2022-08-20T01:02:13.271Z,19.36
2022-08-20T01:04:40.626Z,19.30
2022-08-20T01:07:07.568Z,19.09
2022-08-20T01:09:58.508Z,19.21
2022-08-20T01:12:23.633Z,19.15
2022-08-20T01:14:50.234Z,19.01
2022-08-20T01:17:23.556Z,17.91
2022-08-20T01:20:03.755Z,19.06
2022-08-20T01:23:16.832Z,18.75
2022-08-20T01:25:53.532Z,18.96
2022-08-20T01:28:25.634Z,18.83
2022-08-20T01:30:52.910Z,18.94
2022-08-20T01:33:22.466Z,18.89
2022-08-20T01:35:51.122Z,18.90
2022-08-20T01:38:17.906Z,17.99
2022-08-20T01:41:15.304Z,18.87
2022-08-20T01:43:42.241Z,18.28
2022-08-20T01:46:10.810Z,18.20
2022-08-20T01:48:38.819Z,18.78
2022-08-20T01:51:13.689Z,18.54
2022-08-20T01:53:45.548Z,19.02
2022-08-20T01:56:15.528Z,19.03
2022-08-20T01:58:43.683Z,19.06
2022-08-20T02:01:21.746Z,19.10
2022-08-20T02:03:48.549Z,19.13
2022-08-20T02:06:15.238Z,19.14
2022-08-20T02:08:42.812Z,18.22
2022-08-20T02:11:10.826Z,18.38
2022-08-20T02:13:38.399Z,19.11
2022-08-20T02:16:06.054Z,19.28
2022-08-20T02:18:32.843Z,18.74
2022-08-20T02:20:59.794Z,19.33
2022-08-20T02:23:26.938Z,19.35
2022-08-20T02:25:53.882Z,19.37
2022-08-20T02:28:20.684Z,19.43
2022-08-20T02:30:52.367Z,19.25
2022-08-20T02:33:24.048Z,18.69
2022-08-20T02:35:52.686Z,18.89
2022-08-20T02:38:19.566Z,18.85
2022-08-20T02:40:46.832Z,19.30
2022-08-20T02:43:14.515Z,19.26
2022-08-20T02:45:43.984Z,19.19
2022-08-20T02:48:21.442Z,19.05
2022-08-20T02:50:57.971Z,19.17
2022-08-20T02:53:29.885Z,18.78
2022-08-20T02:55:57.256Z,18.86
2022-08-20T02:58:24.056Z,19.21
2022-08-20T03:00:51.614Z,19.09
2022-08-20T03:03:22.579Z,18.94
2022-08-20T03:05:51.936Z,18.97
2022-08-20T03:08:18.923Z,19.33
2022-08-20T03:10:46.860Z,19.19
2022-08-20T03:13:14.916Z,19.41
2022-08-20T03:15:47.372Z,19.41
2022-08-20T03:18:14.895Z,19.43
2022-08-20T03:20:41.741Z,18.96
2022-08-20T03:23:08.455Z,19.04
2022-08-20T03:25:35.255Z,19.45
2022-08-20T03:28:02.144Z,19.44
2022-08-20T03:30:30.583Z,19.43
2022-08-20T03:32:58.376Z,19.45
2022-08-20T03:35:27.315Z,19.28
2022-08-20T03:37:55.258Z,19.20
2022-08-20T03:40:26.814Z,19.49
2022-08-20T03:42:53.797Z,18.81
2022-08-20T03:45:22.655Z,19.50
2022-08-20T03:47:51.702Z,19.35
2022-08-20T03:50:22.945Z,19.52
2022-08-20T03:52:52.308Z,19.56
2022-08-20T03:55:19.024Z,19.54
2022-08-20T03:57:54.743Z,19.57
2022-08-20T04:00:28.764Z,19.66
2022-08-20T04:02:57.124Z,19.62
2022-08-20T04:05:25.043Z,19.57
2022-08-20T04:07:56.164Z,19.60
2022-08-20T04:10:27.061Z,19.55
2022-08-20T04:12:53.679Z,19.56
2022-08-20T04:15:22.694Z,18.81
2022-08-20T04:17:50.459Z,19.54
2022-08-20T04:20:22.493Z,19.54
2022-08-20T04:22:59.369Z,19.41
2022-08-20T04:25:29.719Z,19.61
2022-08-20T04:28:01.961Z,18.91
2022-08-20T04:30:30.344Z,18.59
2022-08-20T04:32:57.016Z,19.15
2022-08-20T04:35:24.610Z,19.73
2022-08-20T04:38:02.223Z,19.59
2022-08-20T04:40:48.365Z,19.73
2022-08-20T04:43:15.371Z,19.72
2022-08-20T04:45:42.482Z,19.70
2022-08-20T04:48:14.286Z,19.35
2022-08-20T04:50:44.123Z,19.11
2022-08-20T04:53:13.014Z,18.78
2022-08-20T04:55:43.012Z,19.57
2022-08-20T04:58:13.121Z,19.21
2022-08-20T05:00:40.662Z,19.76
2022-08-20T05:03:07.283Z,19.66
2022-08-20T05:05:35.231Z,19.44
2022-08-20T05:08:03.047Z,19.81
2022-08-20T05:10:30.290Z,19.81
2022-08-20T05:12:57.461Z,19.43
2022-08-20T05:15:26.002Z,19.85
2022-08-20T05:18:04.699Z,19.84
2022-08-20T05:20:33.413Z,18.52
2022-08-20T05:23:01.214Z,19.19
2022-08-20T05:25:30.326Z,19.68
2022-08-20T05:28:09.438Z,19.52
2022-08-20T05:30:38.520Z,19.72
2022-08-20T05:33:07.624Z,19.20
2022-08-20T05:35:38.469Z,19.53
2022-08-20T05:38:07.039Z,19.72
2022-08-20T05:40:34.419Z,19.74
2022-08-20T05:43:04.265Z,18.46
2022-08-20T05:45:31.419Z,19.92
2022-08-20T05:47:58.664Z,19.82
2022-08-20T05:50:30.120Z,19.75
2022-08-20T05:52:56.741Z,19.36
2022-08-20T05:55:24.278Z,18.52
2022-08-20T05:57:57.905Z,19.83
2022-08-20T06:00:25.126Z,19.25
2022-08-20T06:03:10.427Z,19.87
2022-08-20T06:05:37.224Z,19.85
2022-08-20T06:08:07.554Z,19.70
2022-08-20T06:10:36.457Z,19.49
2022-08-20T06:13:04.147Z,19.59
2022-08-20T06:15:32.104Z,19.78
2022-08-20T06:17:58.894Z,19.99
2022-08-20T06:20:26.126Z,19.97
2022-08-20T06:22:52.747Z,19.99
2022-08-20T06:25:19.808Z,19.89
2022-08-20T06:27:46.460Z,19.32
2022-08-20T06:30:14.548Z,19.97
2022-08-20T06:32:41.192Z,19.20
2022-08-20T06:35:10.251Z,18.39
2022-08-20T06:37:39.305Z,19.88
2022-08-20T06:40:11.125Z,19.89
2022-08-20T06:42:45.718Z,19.62
2022-08-20T06:45:18.394Z,20.09
2022-08-20T06:47:46.747Z,20.23
2022-08-20T06:50:18.015Z,20.45
2022-08-20T06:53:03.326Z,20.45
2022-08-20T06:55:30.616Z,20.57
2022-08-20T06:58:03.216Z,20.50
2022-08-20T07:00:32.835Z,20.52
2022-08-20T07:03:01.127Z,20.66
2022-08-20T07:05:37.407Z,20.77
2022-08-20T07:08:04.987Z,20.56
2022-08-20T07:10:31.888Z,20.46
2022-08-20T07:13:00.303Z,20.71
2022-08-20T07:15:27.473Z,19.89
2022-08-20T07:18:01.429Z,20.29
2022-08-20T07:20:29.092Z,19.10
2022-08-20T07:22:56.113Z,19.75
2022-08-20T07:25:23.630Z,20.62
2022-08-20T07:27:51.220Z,20.63
2022-08-20T07:30:56.732Z,20.85
2022-08-20T07:33:28.286Z,21.20
2022-08-20T07:36:00.166Z,21.63
2022-08-20T07:38:28.254Z,20.54
2022-08-20T07:40:58.782Z,21.87
2022-08-20T07:43:26.108Z,19.91
2022-08-20T07:45:56.437Z,20.60
2022-08-20T07:48:32.459Z,22.03
2022-08-20T07:51:04.904Z,22.18
2022-08-20T07:53:35.958Z,22.22
2022-08-20T07:56:10.331Z,22.18
2022-08-20T07:58:49.881Z,22.33
2022-08-20T08:01:20.002Z,22.37
2022-08-20T08:03:50.162Z,22.53
2022-08-20T08:06:29.422Z,22.74
2022-08-20T08:09:02.094Z,22.93
2022-08-20T08:11:29.784Z,22.95
2022-08-20T08:13:56.638Z,22.96
2022-08-20T08:16:23.362Z,22.86
2022-08-20T08:18:58.231Z,22.67
2022-08-20T08:21:25.315Z,22.31
2022-08-20T08:23:53.392Z,21.44
2022-08-20T08:26:20.542Z,22.37
2022-08-20T08:28:47.135Z,22.21
2022-08-20T08:31:14.970Z,21.63
2022-08-20T08:33:42.157Z,21.84
2022-08-20T08:36:15.175Z,21.60
2022-08-20T08:38:44.723Z,21.37
2022-08-20T08:41:20.606Z,21.18
2022-08-20T08:43:53.298Z,21.36
2022-08-20T08:46:26.135Z,20.72
2022-08-20T08:48:56.723Z,21.46
2022-08-20T08:51:32.915Z,21.61
2022-08-20T08:54:04.744Z,21.08
2022-08-20T08:56:34.618Z,21.62
2022-08-20T08:59:06.090Z,21.82
2022-08-20T09:01:54.153Z,20.76
2022-08-20T09:04:27.131Z,21.81
2022-08-20T09:06:54.388Z,21.87
2022-08-20T09:09:31.556Z,21.86
2022-08-20T09:12:06.251Z,21.73
2022-08-20T09:14:33.340Z,21.61
2022-08-20T09:16:59.848Z,21.42
2022-08-20T09:19:26.399Z,21.51
2022-08-20T09:21:53.067Z,21.45
2022-08-20T09:24:19.659Z,21.31
2022-08-20T09:26:46.438Z,21.20
2022-08-20T09:29:13.206Z,20.91
2022-08-20T09:31:39.958Z,21.07
2022-08-20T09:34:07.139Z,20.98
2022-08-20T09:36:33.818Z,20.50
2022-08-20T09:39:02.817Z,20.47
2022-08-20T09:41:30.509Z,20.88
2022-08-20T09:43:57.232Z,20.90
2022-08-20T09:46:27.366Z,20.02
2022-08-20T09:48:55.114Z,20.48
2022-08-20T09:51:22.884Z,20.73
2022-08-20T09:53:49.564Z,21.13
2022-08-20T09:56:16.918Z,21.36
2022-08-20T09:58:51.091Z,21.48
2022-08-20T10:01:20.162Z,20.85
2022-08-20T10:03:50.916Z,20.75
2022-08-20T10:06:22.438Z,20.87
2022-08-20T10:08:49.495Z,21.17
2022-08-20T10:11:17.890Z,20.70
2022-08-20T10:13:44.946Z,21.19
2022-08-20T10:16:11.530Z,19.58
2022-08-20T10:18:38.173Z,21.09
2022-08-20T10:21:10.882Z,21.04
2022-08-20T10:23:38.707Z,21.02
2022-08-20T10:26:07.992Z,20.71
2022-08-20T10:28:35.274Z,20.22
2022-08-20T10:31:01.929Z,20.79
2022-08-20T10:33:28.484Z,21.16
2022-08-20T10:35:59.652Z,21.16
2022-08-20T10:38:26.628Z,20.96
2022-08-20T10:40:53.139Z,20.49
2022-08-20T10:43:19.654Z,20.57
2022-08-20T10:45:46.232Z,21.25
2022-08-20T10:48:12.746Z,19.14
2022-08-20T10:50:39.291Z,21.31
2022-08-20T10:53:05.887Z,21.29
2022-08-20T10:55:32.506Z,19.85
2022-08-20T10:57:59.055Z,21.32
2022-08-20T11:00:25.692Z,20.45
2022-08-20T11:02:52.324Z,20.76
2022-08-20T11:05:18.862Z,20.73
2022-08-20T11:07:49.909Z,20.63
2022-08-20T11:10:28.910Z,20.91
2022-08-20T11:12:55.992Z,20.97
2022-08-20T11:15:23.038Z,21.11
2022-08-20T11:17:50.041Z,20.76
2022-08-20T11:20:19.021Z,21.20
2022-08-20T11:22:46.025Z,22.11
2022-08-20T11:25:12.687Z,22.36
2022-08-20T11:27:43.166Z,22.50
2022-08-20T11:30:13.474Z,22.47
2022-08-20T11:32:40.288Z,22.76
2022-08-20T11:35:38.546Z,22.55
2022-08-20T11:37:57.470Z,22.95
2022-08-20T11:40:25.175Z,22.79
2022-08-20T11:43:13.745Z,22.24
2022-08-20T11:45:38.631Z,22.31
2022-08-20T11:48:05.332Z,21.64
2022-08-20T11:50:32.428Z,21.98
2022-08-20T11:52:59.368Z,21.92
2022-08-20T11:55:30.044Z,21.87
2022-08-20T11:57:59.883Z,20.93
2022-08-20T12:00:33.167Z,21.33
2022-08-20T12:03:05.353Z,21.50
2022-08-20T12:05:32.731Z,20.78
2022-08-20T12:08:02.222Z,21.38
2022-08-20T12:10:29.904Z,20.01
2022-08-20T12:12:56.546Z,21.74
2022-08-20T12:15:25.358Z,21.00
2022-08-20T12:17:52.310Z,21.47
2022-08-20T12:20:19.735Z,21.22
2022-08-20T12:22:46.391Z,21.53
2022-08-20T12:25:13.486Z,21.38
2022-08-20T12:27:41.242Z,20.89
2022-08-20T12:30:12.279Z,21.46
2022-08-20T12:32:39.170Z,19.20
2022-08-20T12:35:07.711Z,21.09
2022-08-20T12:37:34.914Z,21.33
2022-08-20T12:40:04.434Z,21.36
2022-08-20T12:42:31.131Z,20.53
2022-08-20T12:44:58.816Z,20.80
2022-08-20T12:47:28.343Z,20.38
2022-08-20T12:50:01.140Z,20.53
2022-08-20T12:52:29.393Z,21.29
2022-08-20T12:54:57.022Z,21.28
2022-08-20T12:57:28.791Z,21.29
2022-08-20T13:00:07.740Z,20.86
2022-08-20T13:02:34.599Z,20.85
2022-08-20T13:05:05.089Z,21.31
2022-08-20T13:07:33.082Z,21.30
2022-08-20T13:10:00.759Z,21.13
2022-08-20T13:12:28.005Z,21.46
2022-08-20T13:14:54.615Z,20.81
2022-08-20T13:17:37.987Z,21.07
2022-08-20T13:20:09.461Z,20.42
2022-08-20T13:22:36.486Z,21.87
2022-08-20T13:25:03.917Z,20.64
2022-08-20T13:27:30.674Z,21.14
2022-08-20T13:29:58.894Z,21.85
2022-08-20T13:32:26.309Z,20.90
2022-08-20T13:34:53.102Z,22.39
2022-08-20T13:37:25.310Z,22.40
2022-08-20T13:39:52.834Z,22.18
2022-08-20T13:42:19.781Z,22.38
2022-08-20T13:44:46.484Z,21.37
2022-08-20T13:47:14.589Z,22.08
2022-08-20T13:49:41.362Z,21.48
2022-08-20T13:52:08.447Z,21.24
2022-08-20T13:54:35.204Z,21.70
2022-08-20T13:57:17.074Z,20.45
2022-08-20T13:59:45.694Z,21.54
2022-08-20T14:02:13.561Z,21.50
2022-08-20T14:04:40.790Z,21.47
2022-08-20T14:07:16.073Z,21.44
2022-08-20T14:09:45.040Z,21.27
2022-08-20T14:12:13.072Z,21.28
2022-08-20T14:14:40.823Z,21.45
2022-08-20T14:17:29.644Z,21.42
2022-08-20T14:20:07.736Z,21.43
2022-08-20T14:22:36.523Z,20.57
2022-08-20T14:25:04.742Z,21.34
2022-08-20T14:27:33.773Z,20.55
2022-08-20T14:30:01.447Z,20.88
2022-08-20T14:32:28.324Z,19.89
2022-08-20T14:34:57.053Z,21.20
2022-08-20T14:37:29.342Z,20.95
2022-08-20T14:39:58.220Z,20.67
2022-08-20T14:42:27.045Z,19.98
2022-08-20T14:44:54.749Z,20.62
2022-08-20T14:47:27.031Z,21.42
2022-08-20T14:49:55.943Z,21.29
2022-08-20T14:52:24.158Z,21.49
2022-08-20T14:54:54.916Z,21.48
2022-08-20T14:57:21.971Z,21.47
2022-08-20T14:59:49.324Z,21.51
2022-08-20T15:02:17.247Z,21.51
2022-08-20T15:04:53.909Z,21.49
2022-08-20T15:07:24.567Z,21.37
2022-08-20T15:09:52.031Z,21.22
2022-08-20T15:12:19.000Z,21.23
2022-08-20T15:14:48.118Z,20.54
2022-08-20T15:17:25.430Z,20.85
2022-08-20T15:19:52.360Z,20.99
2022-08-20T15:22:20.393Z,21.01
2022-08-20T15:24:47.042Z,20.21
2022-08-20T15:27:22.788Z,20.90
2022-08-20T15:29:51.248Z,19.32
2022-08-20T15:32:18.500Z,20.87
2022-08-20T15:34:45.916Z,20.40
2022-08-20T15:37:15.520Z,20.85
2022-08-20T15:39:44.023Z,20.52
2022-08-20T15:42:12.900Z,20.80
2022-08-20T15:44:41.458Z,20.79
2022-08-20T15:47:16.874Z,20.73
2022-08-20T15:49:45.067Z,20.71
2022-08-20T15:52:12.411Z,20.59
2022-08-20T15:54:39.645Z,20.27
2022-08-20T15:57:17.332Z,20.54
2022-08-20T16:00:13.845Z,20.77
2022-08-20T16:02:58.850Z,20.79
2022-08-20T16:05:46.819Z,20.74
2022-08-20T16:08:35.270Z,20.73
2022-08-20T16:11:12.196Z,20.65
2022-08-20T16:13:40.646Z,20.59
2022-08-20T16:16:15.794Z,20.37
2022-08-20T16:18:52.889Z,19.89
2022-08-20T16:21:27.138Z,20.49
2022-08-20T16:23:55.379Z,19.43
2022-08-20T16:26:51.939Z,20.07
2022-08-20T16:29:27.173Z,20.71
2022-08-20T16:32:00.483Z,20.70
2022-08-20T16:34:36.821Z,20.67
2022-08-20T16:37:15.613Z,20.66
2022-08-20T16:40:18.906Z,20.74
2022-08-20T16:42:47.725Z,20.83
2022-08-20T16:45:24.219Z,20.33
2022-08-20T16:47:54.810Z,20.82
2022-08-20T16:50:50.787Z,20.80
2022-08-20T16:53:20.383Z,20.82
2022-08-20T16:55:47.319Z,20.16
2022-08-20T16:58:14.262Z,20.69
2022-08-20T17:00:45.005Z,20.63
2022-08-20T17:03:33.496Z,20.56
2022-08-20T17:06:28.370Z,20.46
2022-08-20T17:08:56.060Z,20.40
2022-08-20T17:11:27.043Z,20.46
2022-08-20T17:14:08.542Z,19.49
2022-08-20T17:16:39.706Z,20.36
2022-08-20T17:19:30.877Z,20.38
2022-08-20T17:22:12.719Z,20.42
2022-08-20T17:24:47.607Z,20.12
2022-08-20T17:27:28.223Z,19.62
2022-08-20T17:30:03.932Z,20.38
2022-08-20T17:32:33.132Z,19.46
2022-08-20T17:35:02.066Z,20.20
2022-08-20T17:37:40.760Z,20.38
2022-08-20T17:40:11.580Z,20.39
2022-08-20T17:42:52.775Z,20.32
2022-08-20T17:45:27.339Z,19.98
2022-08-20T17:47:58.136Z,20.11
2022-08-20T17:50:31.629Z,20.06
2022-08-20T17:53:09.084Z,20.05
2022-08-20T17:55:36.630Z,20.04
2022-08-20T17:58:09.750Z,20.05
2022-08-20T18:00:36.320Z,19.38
2022-08-20T18:03:16.423Z,20.03
2022-08-20T18:05:45.086Z,20.03
2022-08-20T18:08:30.558Z,19.94
2022-08-20T18:11:04.903Z,19.92
2022-08-20T18:14:02.540Z,19.85
2022-08-20T18:16:54.038Z,19.75
2022-08-20T18:19:42.147Z,19.83
2022-08-20T18:22:11.472Z,19.81
2022-08-20T18:24:52.447Z,19.53
2022-08-20T18:27:22.131Z,19.70
2022-08-20T18:29:56.764Z,19.68
2022-08-20T18:32:23.370Z,19.66
2022-08-20T18:34:51.154Z,18.96
2022-08-20T18:37:17.793Z,19.65
2022-08-20T18:39:46.549Z,19.67
2022-08-20T18:42:22.382Z,19.68
2022-08-20T18:44:52.420Z,19.66
2022-08-20T18:47:22.469Z,19.64
2022-08-20T18:50:21.331Z,19.51
2022-08-20T18:53:08.937Z,19.65
2022-08-20T18:55:42.419Z,19.70
2022-08-20T18:58:13.121Z,19.72
2022-08-20T19:00:45.854Z,19.72
2022-08-20T19:03:33.955Z,19.72
2022-08-20T19:06:05.605Z,19.74
2022-08-20T19:08:51.872Z,19.75
2022-08-20T19:11:45.853Z,19.76
2022-08-20T19:14:43.449Z,19.75
2022-08-20T19:17:37.949Z,19.76
2022-08-20T19:20:13.385Z,19.06
2022-08-20T19:22:42.443Z,18.99
2022-08-20T19:25:24.187Z,19.07
2022-08-20T19:27:51.010Z,19.71
2022-08-20T19:30:46.024Z,19.81
2022-08-20T19:33:13.323Z,19.68
2022-08-20T19:35:40.259Z,19.87
2022-08-20T19:38:16.057Z,19.39
2022-08-20T19:40:46.188Z,19.91
2022-08-20T19:43:17.601Z,19.80
2022-08-20T19:45:49.053Z,19.65
2022-08-20T19:48:33.453Z,19.81
2022-08-20T19:51:21.308Z,19.84
2022-08-20T19:53:49.396Z,19.89
2022-08-20T19:56:25.888Z,19.46
2022-08-20T19:59:08.956Z,19.85
2022-08-20T20:01:37.084Z,19.21
2022-08-20T20:04:05.732Z,19.80
2022-08-20T20:06:37.553Z,17.55
2022-08-20T20:09:17.446Z,19.21
2022-08-20T20:12:02.848Z,18.80
2022-08-20T20:14:33.040Z,19.80
2022-08-20T20:17:00.578Z,19.83
2022-08-20T20:19:28.278Z,19.87
2022-08-20T20:22:19.390Z,19.34
2022-08-20T20:24:57.504Z,19.74
2022-08-20T20:27:27.594Z,19.72
2022-08-20T20:30:08.441Z,19.58
2022-08-20T20:32:40.897Z,19.36
2022-08-20T20:35:07.777Z,19.85
2022-08-20T20:37:49.539Z,19.85
2022-08-20T20:40:28.281Z,18.14
2022-08-20T20:43:06.740Z,18.34
2022-08-20T20:45:39.164Z,19.71
2022-08-20T20:48:23.459Z,19.84
2022-08-20T20:50:51.372Z,19.74
2022-08-20T20:53:47.262Z,19.23
2022-08-20T20:56:31.371Z,19.39
2022-08-20T20:59:02.526Z,19.77
2022-08-20T21:01:49.296Z,19.74
2022-08-20T21:04:22.990Z,19.30
2022-08-20T21:06:52.081Z,19.67
2022-08-20T21:09:19.196Z,19.24
2022-08-20T21:11:45.794Z,19.72
2022-08-20T21:14:12.428Z,19.78
2022-08-20T21:16:39.215Z,19.79
2022-08-20T21:19:06.812Z,19.72
2022-08-20T21:21:34.114Z,18.89
2022-08-20T21:24:00.668Z,19.45
2022-08-20T21:26:27.868Z,19.49
2022-08-20T21:28:55.230Z,19.63
2022-08-20T21:31:29.805Z,19.65
2022-08-20T21:33:56.422Z,19.00
2022-08-20T21:36:23.219Z,19.69
2022-08-20T21:38:49.786Z,19.68
2022-08-20T21:41:16.367Z,19.67
2022-08-20T21:43:43.658Z,19.13
2022-08-20T21:46:16.465Z,18.18
2022-08-20T21:48:51.404Z,19.16
2022-08-20T21:51:17.918Z,19.76
2022-08-20T21:53:44.544Z,19.79
2022-08-20T21:56:11.182Z,19.78
2022-08-20T21:58:38.845Z,19.79
2022-08-20T22:01:06.470Z,19.78
2022-08-20T22:03:38.722Z,19.06
2022-08-20T22:06:09.568Z,19.59
2022-08-20T22:08:36.331Z,19.69
2022-08-20T22:11:04.795Z,19.64
2022-08-20T22:13:33.158Z,18.81
2022-08-20T22:16:06.353Z,19.10
2022-08-20T22:18:33.771Z,19.41
2022-08-20T22:21:01.759Z,18.78
2022-08-20T22:23:28.457Z,18.38
2022-08-20T22:25:55.015Z,19.46
2022-08-20T22:28:21.795Z,18.74
2022-08-20T22:30:49.883Z,19.01
2022-08-20T22:33:22.217Z,19.44
2022-08-20T22:35:52.168Z,19.43
2022-08-20T22:38:19.402Z,19.27
2022-08-20T22:40:46.298Z,18.94
2022-08-20T22:43:13.939Z,18.76
2022-08-20T22:45:43.277Z,19.36
2022-08-20T22:48:11.942Z,19.34
2022-08-20T22:50:38.541Z,19.05
2022-08-20T22:53:06.955Z,19.33
2022-08-20T22:55:33.883Z,19.28
2022-08-20T22:58:00.618Z,19.14
2022-08-20T23:00:27.637Z,18.74
2022-08-20T23:02:57.922Z,17.86
2022-08-20T23:05:27.232Z,19.38
2022-08-20T23:07:58.555Z,18.93
2022-08-20T23:10:26.852Z,19.36
2022-08-20T23:12:53.947Z,18.59
2022-08-20T23:15:20.620Z,19.37
2022-08-20T23:17:47.290Z,19.36
2022-08-20T23:20:16.979Z,18.74
2022-08-20T23:22:44.054Z,19.21
2022-08-20T23:25:11.946Z,19.03
2022-08-20T23:27:44.725Z,19.27
2022-08-20T23:30:12.362Z,18.56
2022-08-20T23:32:39.032Z,19.13
2022-08-20T23:35:06.723Z,19.25
2022-08-20T23:37:37.964Z,19.26
2022-08-20T23:40:05.489Z,19.24
2022-08-20T23:42:32.270Z,19.20
2022-08-20T23:44:58.836Z,19.24
2022-08-20T23:47:25.737Z,18.69
2022-08-20T23:49:52.394Z,18.43
2022-08-20T23:52:18.987Z,19.24
2022-08-20T23:54:45.577Z,18.80
2022-08-20T23:57:12.494Z,19.05
2022-08-20T23:59:40.503Z,19.15
